Terminal Aerodrome Forecast
Issued by NWS Jackson, MS

Home | Current Version | Previous Version | Text Only | Print | Product List | Glossary On
Versions: 1 2 3 4 5 6 7 8 9 10 11 12 13 14 15 16 17 18 19 20
000
FTUS44 KJAN 180548
TAFJAN
TAF
KJAN 180548Z 1806/1906 09004KT P6SM OVC007
     FM180900 11005KT 4SM BR OVC004
     FM181600 10006KT P6SM VCSH SCT015 BKN025
     FM181900 13006KT 5SM TSRA OVC020CB
     FM190300 15009KT P6SM VCSH BKN007 OVC025=

USA.gov is the U.S. government's official web portal to all federal, state and local government web resources and services.